KSTS/STS METAR and TAF weather

Enter ICAO airport designator
Station Type Date Time Source
KSTS METAR 2019/05/25 14:53 UTC NOAA

KSTS 251453Z 11004KT 10SM FEW008 FEW014 12/09 A2982 RMK AO2 SLP092 T01170094 53004


Station Type Date Time Source
KSTS Decoded METAR 2019/05/25 14:53 UTC NOAA

SANTA ROSA SONOMA COUNTY, CA, United States (KSTS) 38-30N 122-49W 39M
May 25, 2019 - 10:53 AM EDT / 2019.05.25 1453 UTC
Wind: from the ESE (110 degrees) at 5 MPH (4 KT):0
Visibility: 10 mile(s):0
Sky conditions: mostly clear
Temperature: 53.1 F (11.7 C)
Dew Point: 48.9 F (9.4 C)
Relative Humidity: 85%
Pressure (altimeter): 29.82 in. Hg (1009 hPa)
Pressure tendency: 0.01 inches (0.4 hPa) higher than three hours ago
ob: KSTS 251453Z 11004KT 10SM FEW008 FEW014 12/09 A2982 RMK AO2 SLP092 T01170094 53004
cycle: 15

Station Type Date Time Source
KSTS TAF 2019/05/25 12:42 UTC NOAA

TAF KSTS 251140Z 2512/2612 23004KT P6SM BKN010
FM251700 VRB04KT P6SM BKN025
FM252000 18008KT P6SM SCT035
FM260500 25008KT P6SM SCT020

Example: see airport list